sensor_id;sensor_type;location;lat;lon;timestamp;pressure;altitude;pressure_sealevel;temperature;humidity
55263;BME280;41125;48.752;9.168;2024-03-22T00:00:13;97524.97;;;9.48;88.14
55263;BME280;41125;48.752;9.168;2024-03-22T00:00:44;97524.97;;;9.48;87.90
55263;BME280;41125;48.752;9.168;2024-03-22T00:01:15;97523.34;;;9.47;87.93
55263;BME280;41125;48.752;9.168;2024-03-22T00:01:47;97530.38;;;9.48;88.00
55263;BME280;41125;48.752;9.168;2024-03-22T00:02:19;97524.97;;;9.48;87.94
55263;BME280;41125;48.752;9.168;2024-03-22T00:02:51;97523.87;;;9.49;87.53
55263;BME280;41125;48.752;9.168;2024-03-22T00:03:22;97528.50;;;9.48;87.85
55263;BME280;41125;48.752;9.168;2024-03-22T00:03:54;97528.50;;;9.48;87.53
55263;BME280;41125;48.752;9.168;2024-03-22T00:04:25;97530.38;;;9.48;87.89
55263;BME280;41125;48.752;9.168;2024-03-22T00:04:57;97528.75;;;9.47;87.78
55263;BME280;41125;48.752;9.168;2024-03-22T00:05:28;97531.47;;;9.47;88.05
55263;BME280;41125;48.752;9.168;2024-03-22T00:05:59;97527.94;;;9.46;87.78
55263;BME280;41125;48.752;9.168;2024-03-22T00:06:30;97521.72;;;9.46;88.26
55263;BME280;41125;48.752;9.168;2024-03-22T00:07:02;97530.94;;;9.45;87.79
55263;BME280;41125;48.752;9.168;2024-03-22T00:07:34;97525.50;;;9.45;87.78
55263;BME280;41125;48.752;9.168;2024-03-22T00:08:05;97525.50;;;9.45;87.87
55263;BME280;41125;48.752;9.168;2024-03-22T00:08:36;97519.28;;;9.44;88.03
55263;BME280;41125;48.752;9.168;2024-03-22T00:09:08;97518.47;;;9.44;87.70
55263;BME280;41125;48.752;9.168;2024-03-22T00:09:39;97521.16;;;9.44;87.81
55263;BME280;41125;48.752;9.168;2024-03-22T00:10:10;97519.53;;;9.43;87.90
55263;BME280;41125;48.752;9.168;2024-03-22T00:10:42;97521.44;;;9.42;88.13
55263;BME280;41125;48.752;9.168;2024-03-22T00:11:13;97516.84;;;9.43;87.90
55263;BME280;41125;48.752;9.168;2024-03-22T00:11:44;97519.53;;;9.43;88.16
55263;BME280;41125;48.752;9.168;2024-03-22T00:12:16;97516.84;;;9.43;87.97
55263;BME280;41125;48.752;9.168;2024-03-22T00:12:49;97507.09;;;9.41;87.92
55263;BME280;41125;48.752;9.168;2024-03-22T00:13:24;97514.41;;;9.41;87.77
55263;BME280;41125;48.752;9.168;2024-03-22T00:13:59;97509.78;;;9.41;87.83
55263;BME280;41125;48.752;9.168;2024-03-22T00:14:30;97515.22;;;9.41;87.68
55263;BME280;41125;48.752;9.168;2024-03-22T00:15:06;97512.78;;;9.40;88.10
55263;BME280;41125;48.752;9.168;2024-03-22T00:15:38;97510.06;;;9.40;87.70
55263;BME280;41125;48.752;9.168;2024-03-22T00:16:10;97517.38;;;9.39;87.83
55263;BME280;41125;48.752;9.168;2024-03-22T00:16:42;97514.66;;;9.39;88.04
55263;BME280;41125;48.752;9.168;2024-03-22T00:17:15;97514.66;;;9.39;88.01
55263;BME280;41125;48.752;9.168;2024-03-22T00:17:47;97514.13;;;9.37;87.83
55263;BME280;41125;48.752;9.168;2024-03-22T00:18:18;97514.94;;;9.38;88.15
55263;BME280;41125;48.752;9.168;2024-03-22T00:18:50;97512.50;;;9.36;87.96
55263;BME280;41125;48.752;9.168;2024-03-22T00:19:21;97514.38;;;9.36;88.08
55263;BME280;41125;48.752;9.168;2024-03-22T00:19:53;97514.69;;;9.34;88.44
55263;BME280;41125;48.752;9.168;2024-03-22T00:20:25;97514.69;;;9.34;88.34
55263;BME280;41125;48.752;9.168;2024-03-22T00:20:56;97513.06;;;9.33;88.23
55263;BME280;41125;48.752;9.168;2024-03-22T00:21:27;97507.66;;;9.33;88.37
55263;BME280;41125;48.752;9.168;2024-03-22T00:22:03;97516.84;;;9.32;88.57
55263;BME280;41125;48.752;9.168;2024-03-22T00:22:34;97510.88;;;9.30;88.61
55263;BME280;41125;48.752;9.168;2024-03-22T00:23:06;97513.59;;;9.30;88.54
55263;BME280;41125;48.752;9.168;2024-03-22T00:23:37;97519.00;;;9.30;88.73
55263;BME280;41125;48.752;9.168;2024-03-22T00:24:08;97508.19;;;9.30;88.51
55263;BME280;41125;48.752;9.168;2024-03-22T00:24:40;97519.00;;;9.30;88.43
55263;BME280;41125;48.752;9.168;2024-03-22T00:25:11;97511.97;;;9.29;88.60
55263;BME280;41125;48.752;9.168;2024-03-22T00:25:42;97513.88;;;9.29;88.47
55263;BME280;41125;48.752;9.168;2024-03-22T00:26:14;97508.72;;;9.27;88.44
55263;BME280;41125;48.752;9.168;2024-03-22T00:26:46;97507.91;;;9.27;88.61
55263;BME280;41125;48.752;9.168;2024-03-22T00:27:17;97511.44;;;9.27;88.37
55263;BME280;41125;48.752;9.168;2024-03-22T00:27:48;97511.44;;;9.27;88.70
55263;BME280;41125;48.752;9.168;2024-03-22T00:28:20;97511.69;;;9.26;88.68
55263;BME280;41125;48.752;9.168;2024-03-22T00:28:54;97508.16;;;9.25;88.74
55263;BME280;41125;48.752;9.168;2024-03-22T00:29:25;97506.53;;;9.24;88.81
55263;BME280;41125;48.752;9.168;2024-03-22T00:29:58;97508.72;;;9.22;88.67
55263;BME280;41125;48.752;9.168;2024-03-22T00:30:29;97505.19;;;9.22;88.80
55263;BME280;41125;48.752;9.168;2024-03-22T00:31:00;97508.72;;;9.22;89.00
55263;BME280;41125;48.752;9.168;2024-03-22T00:31:31;97504.38;;;9.21;88.93
55263;BME280;41125;48.752;9.168;2024-03-22T00:32:04;97501.94;;;9.20;88.91
55263;BME280;41125;48.752;9.168;2024-03-22T00:32:35;97510.06;;;9.20;88.87
55263;BME280;41125;48.752;9.168;2024-03-22T00:33:09;97504.09;;;9.18;89.03
55263;BME280;41125;48.752;9.168;2024-03-22T00:33:40;97507.06;;;9.16;88.86
55263;BME280;41125;48.752;9.168;2024-03-22T00:34:12;97502.72;;;9.15;88.96
55263;BME280;41125;48.752;9.168;2024-03-22T00:34:44;97503.81;;;9.14;88.95
55263;BME280;41125;48.752;9.168;2024-03-22T00:35:17;97504.09;;;9.13;89.25
55263;BME280;41125;48.752;9.168;2024-03-22T00:35:48;97505.97;;;9.12;89.26
55263;BME280;41125;48.752;9.168;2024-03-22T00:36:20;97504.34;;;9.11;89.20
55263;BME280;41125;48.752;9.168;2024-03-22T00:36:51;97504.34;;;9.11;89.54
55263;BME280;41125;48.752;9.168;2024-03-22T00:37:22;97500.81;;;9.11;89.56
55263;BME280;41125;48.752;9.168;2024-03-22T00:37:54;97503.00;;;9.08;89.33
55263;BME280;41125;48.752;9.168;2024-03-22T00:38:25;97507.59;;;9.08;89.40
55263;BME280;41125;48.752;9.168;2024-03-22T00:38:56;97507.59;;;9.08;89.57
55263;BME280;41125;48.752;9.168;2024-03-22T00:39:31;97504.88;;;9.08;89.45
55263;BME280;41125;48.752;9.168;2024-03-22T00:40:03;97495.13;;;9.07;89.52
55263;BME280;41125;48.752;9.168;2024-03-22T00:40:35;97497.56;;;9.03;89.38
55263;BME280;41125;48.752;9.168;2024-03-22T00:41:06;97500.53;;;9.02;89.46
55263;BME280;41125;48.752;9.168;2024-03-22T00:41:37;97499.72;;;9.01;89.58
55263;BME280;41125;48.752;9.168;2024-03-22T00:42:09;97496.50;;;8.99;89.41
55263;BME280;41125;48.752;9.168;2024-03-22T00:42:40;97503.81;;;8.99;89.43
55263;BME280;41125;48.752;9.168;2024-03-22T00:43:12;97498.66;;;8.97;89.50
55263;BME280;41125;48.752;9.168;2024-03-22T00:43:43;97495.41;;;8.95;89.75
55263;BME280;41125;48.752;9.168;2024-03-22T00:44:15;97491.88;;;8.95;89.81
55263;BME280;41125;48.752;9.168;2024-03-22T00:44:46;97493.78;;;8.94;89.96
55263;BME280;41125;48.752;9.168;2024-03-22T00:45:17;97490.81;;;8.96;89.99
55263;BME280;41125;48.752;9.168;2024-03-22T00:45:48;97495.13;;;8.97;90.00
55263;BME280;41125;48.752;9.168;2024-03-22T00:46:20;97488.09;;;8.96;89.43
55263;BME280;41125;48.752;9.168;2024-03-22T00:46:52;97488.09;;;8.96;89.43
55263;BME280;41125;48.752;9.168;2024-03-22T00:47:23;97490.81;;;8.96;89.81
55263;BME280;41125;48.752;9.168;2024-03-22T00:47:55;97486.47;;;8.95;89.69
55263;BME280;41125;48.752;9.168;2024-03-22T00:48:26;97490.81;;;8.96;89.85
55263;BME280;41125;48.752;9.168;2024-03-22T00:48:58;97478.34;;;8.95;89.58
55263;BME280;41125;48.752;9.168;2024-03-22T00:49:29;97477.28;;;8.96;89.58
55263;BME280;41125;48.752;9.168;2024-03-22T00:50:01;97485.37;;;8.96;89.61
55263;BME280;41125;48.752;9.168;2024-03-22T00:50:33;97482.69;;;8.96;89.60
55263;BME280;41125;48.752;9.168;2024-03-22T00:51:08;97485.37;;;8.96;89.26
55263;BME280;41125;48.752;9.168;2024-03-22T00:51:39;97478.34;;;8.95;89.21
55263;BME280;41125;48.752;9.168;2024-03-22T00:52:14;97484.56;;;8.95;89.56
55263;BME280;41125;48.752;9.168;2024-03-22T00:52:47;97481.88;;;8.95;89.26
55263;BME280;41125;48.752;9.168;2024-03-22T00:53:19;97478.34;;;8.95;89.35
55263;BME280;41125;48.752;9.168;2024-03-22T00:53:50;97481.88;;;8.95;89.16
55263;BME280;41125;48.752;9.168;2024-03-22T00:54:21;97478.34;;;8.95;89.23
55263;BME280;41125;48.752;9.168;2024-03-22T00:54:53;97479.97;;;8.96;88.95
55263;BME280;41125;48.752;9.168;2024-03-22T00:55:28;97470.22;;;8.95;88.86
55263;BME280;41125;48.752;9.168;2024-03-22T00:55:59;97480.78;;;8.96;88.59
55263;BME280;41125;48.752;9.168;2024-03-22T00:56:31;97469.16;;;8.96;88.76
55263;BME280;41125;48.752;9.168;2024-03-22T00:57:03;97479.97;;;8.96;88.54
55263;BME280;41125;48.752;9.168;2024-03-22T00:57:35;97476.47;;;8.95;88.46
55263;BME280;41125;48.752;9.168;2024-03-22T00:58:07;97472.38;;;8.93;88.75
55263;BME280;41125;48.752;9.168;2024-03-22T00:58:38;97469.94;;;8.91;88.83
55263;BME280;41125;48.752;9.168;2024-03-22T00:59:09;97472.09;;;8.89;88.94
55263;BME280;41125;48.752;9.168;2024-03-22T00:59:41;97471.56;;;8.87;88.99
55263;BME280;41125;48.752;9.168;2024-03-22T01:00:13;97466.97;;;8.88;89.17
55263;BME280;41125;48.752;9.168;2024-03-22T01:00:46;97468.84;;;8.87;89.48
55263;BME280;41125;48.752;9.168;2024-03-22T01:01:18;97463.72;;;8.86;89.27
55263;BME280;41125;48.752;9.168;2024-03-22T01:01:49;97463.72;;;8.86;89.58
55263;BME280;41125;48.752;9.168;2024-03-22T01:02:21;97462.09;;;8.85;89.32
55263;BME280;41125;48.752;9.168;2024-03-22T01:02:53;97459.38;;;8.85;89.53
55263;BME280;41125;48.752;9.168;2024-03-22T01:03:25;97455.84;;;8.84;89.32
55263;BME280;41125;48.752;9.168;2024-03-22T01:03:59;97456.66;;;8.85;89.26
55263;BME280;41125;48.752;9.168;2024-03-22T01:04:31;97462.09;;;8.85;89.25
55263;BME280;41125;48.752;9.168;2024-03-22T01:05:04;97451.25;;;8.85;89.28
55263;BME280;41125;48.752;9.168;2024-03-22T01:05:37;97451.78;;;8.82;89.05
55263;BME280;41125;48.752;9.168;2024-03-22T01:06:08;97452.88;;;8.86;89.13
55263;BME280;41125;48.752;9.168;2024-03-22T01:06:39;97456.66;;;8.85;89.00
55263;BME280;41125;48.752;9.168;2024-03-22T01:07:10;97452.06;;;8.85;89.30
55263;BME280;41125;48.752;9.168;2024-03-22T01:07:42;97445.84;;;8.85;89.20
55263;BME280;41125;48.752;9.168;2024-03-22T01:08:14;97449.63;;;8.84;89.65
55263;BME280;41125;48.752;9.168;2024-03-22T01:08:48;97447.19;;;8.82;89.06
55263;BME280;41125;48.752;9.168;2024-03-22T01:09:20;97450.97;;;8.81;89.47
55263;BME280;41125;48.752;9.168;2024-03-22T01:09:51;97456.66;;;8.80;89.37
55263;BME280;41125;48.752;9.168;2024-03-22T01:10:22;97450.69;;;8.78;89.64
55263;BME280;41125;48.752;9.168;2024-03-22T01:10:54;97452.84;;;8.76;89.60
55263;BME280;41125;48.752;9.168;2024-03-22T01:11:25;97450.41;;;8.74;89.85
55263;BME280;41125;48.752;9.168;2024-03-22T01:11:56;97451.50;;;8.73;89.49
55263;BME280;41125;48.752;9.168;2024-03-22T01:12:27;97450.13;;;8.70;89.89
55263;BME280;41125;48.752;9.168;2024-03-22T01:12:59;97450.66;;;8.67;90.38
55263;BME280;41125;48.752;9.168;2024-03-22T01:13:30;97453.94;;;8.64;90.62
55263;BME280;41125;48.752;9.168;2024-03-22T01:14:02;97453.38;;;8.62;90.41
55263;BME280;41125;48.752;9.168;2024-03-22T01:14:33;97456.34;;;8.61;90.50
55263;BME280;41125;48.752;9.168;2024-03-22T01:15:08;97453.91;;;8.59;90.45
55263;BME280;41125;48.752;9.168;2024-03-22T01:15:40;97451.22;;;8.59;90.57
55263;BME280;41125;48.752;9.168;2024-03-22T01:16:13;97445.81;;;8.59;90.56
55263;BME280;41125;48.752;9.168;2024-03-22T01:16:44;97452.28;;;8.58;90.96
55263;BME280;41125;48.752;9.168;2024-03-22T01:17:16;97452.28;;;8.58;90.80
55263;BME280;41125;48.752;9.168;2024-03-22T01:17:47;97452.81;;;8.55;91.39
55263;BME280;41125;48.752;9.168;2024-03-22T01:18:18;97447.41;;;8.55;90.98
55263;BME280;41125;48.752;9.168;2024-03-22T01:18:51;97440.37;;;8.54;91.00
55263;BME280;41125;48.752;9.168;2024-03-22T01:19:22;97439.28;;;8.55;91.13
55263;BME280;41125;48.752;9.168;2024-03-22T01:19:54;97442.00;;;8.55;91.34
55263;BME280;41125;48.752;9.168;2024-03-22T01:20:25;97437.94;;;8.53;91.25
55263;BME280;41125;48.752;9.168;2024-03-22T01:20:58;97445.22;;;8.52;91.51
55263;BME280;41125;48.752;9.168;2024-03-22T01:21:29;97440.09;;;8.51;91.06
55263;BME280;41125;48.752;9.168;2024-03-22T01:22:00;97443.06;;;8.49;91.43
55263;BME280;41125;48.752;9.168;2024-03-22T01:22:35;97437.66;;;8.49;91.30
55263;BME280;41125;48.752;9.168;2024-03-22T01:23:07;97435.22;;;8.48;91.51
55263;BME280;41125;48.752;9.168;2024-03-22T01:23:38;97435.22;;;8.48;91.25
55263;BME280;41125;48.752;9.168;2024-03-22T01:24:10;97437.09;;;8.47;91.35
55263;BME280;41125;48.752;9.168;2024-03-22T01:24:42;97439.81;;;8.47;91.39
55263;BME280;41125;48.752;9.168;2024-03-22T01:25:13;97436.03;;;8.48;91.57
55263;BME280;41125;48.752;9.168;2024-03-22T01:25:45;97433.31;;;8.48;91.32
55263;BME280;41125;48.752;9.168;2024-03-22T01:26:16;97435.22;;;8.48;91.31
55263;BME280;41125;48.752;9.168;2024-03-22T01:26:49;97441.44;;;8.48;90.95
55263;BME280;41125;48.752;9.168;2024-03-22T01:27:20;97429.78;;;8.48;91.21
55263;BME280;41125;48.752;9.168;2024-03-22T01:27:52;97438.19;;;8.46;91.22
55263;BME280;41125;48.752;9.168;2024-03-22T01:28:23;97432.78;;;8.46;90.69
55263;BME280;41125;48.752;9.168;2024-03-22T01:28:55;97438.19;;;8.46;91.12
55263;BME280;41125;48.752;9.168;2024-03-22T01:29:26;97430.31;;;8.45;91.51
55263;BME280;41125;48.752;9.168;2024-03-22T01:30:03;97437.06;;;8.42;92.07
55263;BME280;41125;48.752;9.168;2024-03-22T01:30:34;97430.03;;;8.41;92.02
55263;BME280;41125;48.752;9.168;2024-03-22T01:31:07;97430.03;;;8.41;91.54
55263;BME280;41125;48.752;9.168;2024-03-22T01:31:42;97431.13;;;8.40;91.82
55263;BME280;41125;48.752;9.168;2024-03-22T01:32:13;97430.03;;;8.41;91.60
55263;BME280;41125;48.752;9.168;2024-03-22T01:32:46;97428.94;;;8.37;91.63
55263;BME280;41125;48.752;9.168;2024-03-22T01:33:17;97428.41;;;8.40;91.34
55263;BME280;41125;48.752;9.168;2024-03-22T01:33:48;97429.22;;;8.40;91.59
55263;BME280;41125;48.752;9.168;2024-03-22T01:34:20;97426.25;;;8.42;91.14
55263;BME280;41125;48.752;9.168;2024-03-22T01:34:52;97429.22;;;8.40;91.64
55263;BME280;41125;48.752;9.168;2024-03-22T01:35:23;97425.16;;;8.38;91.41
55263;BME280;41125;48.752;9.168;2024-03-22T01:35:55;97422.47;;;8.38;91.66
55263;BME280;41125;48.752;9.168;2024-03-22T01:36:26;97421.91;;;8.36;91.43
55263;BME280;41125;48.752;9.168;2024-03-22T01:36:58;97427.59;;;8.34;91.95
55263;BME280;41125;48.752;9.168;2024-03-22T01:37:30;97424.06;;;8.34;91.37
55263;BME280;41125;48.752;9.168;2024-03-22T01:38:07;97428.41;;;8.35;91.94
55263;BME280;41125;48.752;9.168;2024-03-22T01:38:39;97421.91;;;8.36;91.76
55263;BME280;41125;48.752;9.168;2024-03-22T01:39:11;97424.63;;;8.36;91.55
55263;BME280;41125;48.752;9.168;2024-03-22T01:39:46;97434.34;;;8.37;91.33
55263;BME280;41125;48.752;9.168;2024-03-22T01:40:18;97422.72;;;8.36;91.37
55263;BME280;41125;48.752;9.168;2024-03-22T01:40:49;97427.06;;;8.37;91.25
55263;BME280;41125;48.752;9.168;2024-03-22T01:41:20;97427.31;;;8.36;91.14
55263;BME280;41125;48.752;9.168;2024-03-22T01:41:51;97419.22;;;8.36;91.14
55263;BME280;41125;48.752;9.168;2024-03-22T01:42:23;97431.66;;;8.37;90.99
55263;BME280;41125;48.752;9.168;2024-03-22T01:42:58;97426.50;;;8.35;90.79
55263;BME280;41125;48.752;9.168;2024-03-22T01:43:30;97438.13;;;8.36;90.83
55263;BME280;41125;48.752;9.168;2024-03-22T01:44:01;97427.31;;;8.36;90.38
55263;BME280;41125;48.752;9.168;2024-03-22T01:44:32;97428.94;;;8.37;90.53
55263;BME280;41125;48.752;9.168;2024-03-22T01:45:05;97432.72;;;8.36;90.62
55263;BME280;41125;48.752;9.168;2024-03-22T01:45:37;97436.25;;;8.36;90.84
55263;BME280;41125;48.752;9.168;2024-03-22T01:46:08;97434.34;;;8.37;90.25
55263;BME280;41125;48.752;9.168;2024-03-22T01:46:41;97432.19;;;8.39;90.13
55263;BME280;41125;48.752;9.168;2024-03-22T01:47:12;97431.13;;;8.40;90.09
55263;BME280;41125;48.752;9.168;2024-03-22T01:47:43;97430.03;;;8.41;89.73
55263;BME280;41125;48.752;9.168;2024-03-22T01:48:16;97433.84;;;8.45;90.01
55263;BME280;41125;48.752;9.168;2024-03-22T01:48:47;97433.84;;;8.45;89.86
55263;BME280;41125;48.752;9.168;2024-03-22T01:49:21;97431.69;;;8.47;89.03
55263;BME280;41125;48.752;9.168;2024-03-22T01:49:54;97435.75;;;8.50;89.60
55263;BME280;41125;48.752;9.168;2024-03-22T01:50:26;97432.78;;;8.51;89.28
55263;BME280;41125;48.752;9.168;2024-03-22T01:51:00;97435.50;;;8.51;89.06
55263;BME280;41125;48.752;9.168;2024-03-22T01:51:32;97431.72;;;8.52;88.74
55263;BME280;41125;48.752;9.168;2024-03-22T01:52:05;97426.31;;;8.52;88.92
55263;BME280;41125;48.752;9.168;2024-03-22T01:52:39;97429.56;;;8.54;88.36
55263;BME280;41125;48.752;9.168;2024-03-22T01:53:12;97432.25;;;8.54;88.57
55263;BME280;41125;48.752;9.168;2024-03-22T01:53:44;97430.63;;;8.53;88.56
55263;BME280;41125;48.752;9.168;2024-03-22T01:54:16;97437.12;;;8.52;88.45
55263;BME280;41125;48.752;9.168;2024-03-22T01:54:48;97431.72;;;8.52;88.85
55263;BME280;41125;48.752;9.168;2024-03-22T01:55:21;97425.50;;;8.52;88.59
55263;BME280;41125;48.752;9.168;2024-03-22T01:55:53;97428.19;;;8.52;88.73
55263;BME280;41125;48.752;9.168;2024-03-22T01:56:24;97428.47;;;8.50;88.41
55263;BME280;41125;48.752;9.168;2024-03-22T01:56:56;97426.84;;;8.49;89.13
55263;BME280;41125;48.752;9.168;2024-03-22T01:57:28;97427.34;;;8.46;89.74
55263;BME280;41125;48.752;9.168;2024-03-22T01:57:59;97424.66;;;8.46;89.82
55263;BME280;41125;48.752;9.168;2024-03-22T01:58:31;97423.28;;;8.44;89.72
55263;BME280;41125;48.752;9.168;2024-03-22T01:59:04;97427.06;;;8.43;89.58
55263;BME280;41125;48.752;9.168;2024-03-22T01:59:35;97427.34;;;8.41;89.95
55263;BME280;41125;48.752;9.168;2024-03-22T02:00:09;97426.78;;;8.39;89.21
55263;BME280;41125;48.752;9.168;2024-03-22T02:00:40;97419.47;;;8.34;89.00
55263;BME280;41125;48.752;9.168;2024-03-22T02:01:11;97430.00;;;8.31;89.37
55263;BME280;41125;48.752;9.168;2024-03-22T02:01:43;97427.03;;;8.32;89.40
55263;BME280;41125;48.752;9.168;2024-03-22T02:02:14;97428.41;;;8.35;88.95
55263;BME280;41125;48.752;9.168;2024-03-22T02:02:45;97425.97;;;8.38;88.90
55263;BME280;41125;48.752;9.168;2024-03-22T02:03:18;97427.34;;;8.41;88.62
55263;BME280;41125;48.752;9.168;2024-03-22T02:03:49;97420.31;;;8.40;88.34
55263;BME280;41125;48.752;9.168;2024-03-22T02:04:21;97428.41;;;8.40;88.40
55263;BME280;41125;48.752;9.168;2024-03-22T02:04:52;97421.38;;;8.39;88.55
55263;BME280;41125;48.752;9.168;2024-03-22T02:05:24;97423.00;;;8.40;88.40
55263;BME280;41125;48.752;9.168;2024-03-22T02:05:56;97420.31;;;8.40;88.32
55263;BME280;41125;48.752;9.168;2024-03-22T02:06:27;97420.31;;;8.40;88.35
55263;BME280;41125;48.752;9.168;2024-03-22T02:06:58;97421.38;;;8.39;88.40
55263;BME280;41125;48.752;9.168;2024-03-22T02:07:30;97417.06;;;8.38;88.49
55263;BME280;41125;48.752;9.168;2024-03-22T02:08:01;97420.56;;;8.38;88.80
55263;BME280;41125;48.752;9.168;2024-03-22T02:08:32;97414.34;;;8.38;88.69
55263;BME280;41125;48.752;9.168;2024-03-22T02:09:04;97416.25;;;8.37;89.16
55263;BME280;41125;48.752;9.168;2024-03-22T02:09:36;97413.81;;;8.36;88.87
55263;BME280;41125;48.752;9.168;2024-03-22T02:10:09;97414.88;;;8.35;88.80
55263;BME280;41125;48.752;9.168;2024-03-22T02:10:44;97414.88;;;8.35;88.89
55263;BME280;41125;48.752;9.168;2024-03-22T02:11:16;97419.22;;;8.36;89.24
55263;BME280;41125;48.752;9.168;2024-03-22T02:11:51;97409.47;;;8.35;89.00
55263;BME280;41125;48.752;9.168;2024-03-22T02:12:22;97410.28;;;8.35;89.53
55263;BME280;41125;48.752;9.168;2024-03-22T02:12:53;97409.47;;;8.35;89.29
55263;BME280;41125;48.752;9.168;2024-03-22T02:13:25;97406.75;;;8.35;89.58
55263;BME280;41125;48.752;9.168;2024-03-22T02:13:56;97404.31;;;8.33;89.25
55263;BME280;41125;48.752;9.168;2024-03-22T02:14:27;97396.44;;;8.32;89.20
55263;BME280;41125;48.752;9.168;2024-03-22T02:14:59;97399.16;;;8.32;89.39
55263;BME280;41125;48.752;9.168;2024-03-22T02:15:30;97399.44;;;8.30;89.50
55263;BME280;41125;48.752;9.168;2024-03-22T02:16:06;97400.53;;;8.29;89.17
55263;BME280;41125;48.752;9.168;2024-03-22T02:16:40;97398.09;;;8.28;89.63
55263;BME280;41125;48.752;9.168;2024-03-22T02:17:11;97403.75;;;8.26;90.24
55263;BME280;41125;48.752;9.168;2024-03-22T02:17:42;97407.00;;;8.23;90.32
55263;BME280;41125;48.752;9.168;2024-03-22T02:18:13;97402.91;;;8.21;90.20
55263;BME280;41125;48.752;9.168;2024-03-22T02:18:45;97399.66;;;8.19;90.20
55263;BME280;41125;48.752;9.168;2024-03-22T02:19:16;97398.03;;;8.18;90.12
55263;BME280;41125;48.752;9.168;2024-03-22T02:19:48;97399.38;;;8.15;90.37
55263;BME280;41125;48.752;9.168;2024-03-22T02:20:19;97401.53;;;8.13;90.91
55263;BME280;41125;48.752;9.168;2024-03-22T02:20:50;97397.47;;;8.11;90.93
55263;BME280;41125;48.752;9.168;2024-03-22T02:21:22;97402.87;;;8.11;90.77
55263;BME280;41125;48.752;9.168;2024-03-22T02:21:53;97398.53;;;8.10;91.12
55263;BME280;41125;48.752;9.168;2024-03-22T02:22:26;97393.13;;;8.10;90.95
55263;BME280;41125;48.752;9.168;2024-03-22T02:22:58;97396.66;;;8.10;90.96
55263;BME280;41125;48.752;9.168;2024-03-22T02:23:37;97395.03;;;8.09;90.96
55263;BME280;41125;48.752;9.168;2024-03-22T02:24:09;97402.59;;;8.07;91.15
55263;BME280;41125;48.752;9.168;2024-03-22T02:24:40;97395.81;;;8.04;90.80
55263;BME280;41125;48.752;9.168;2024-03-22T02:25:11;97393.13;;;8.04;91.00
55263;BME280;41125;48.752;9.168;2024-03-22T02:25:42;97398.25;;;8.06;90.96
55263;BME280;41125;48.752;9.168;2024-03-22T02:26:13;97395.56;;;8.06;90.79
55263;BME280;41125;48.752;9.168;2024-03-22T02:26:45;97397.44;;;8.05;90.91
55263;BME280;41125;48.752;9.168;2024-03-22T02:27:16;97396.88;;;8.03;91.22
55263;BME280;41125;48.752;9.168;2024-03-22T02:27:48;97403.09;;;8.04;91.13
55263;BME280;41125;48.752;9.168;2024-03-22T02:28:21;97399.34;;;8.05;90.81
55263;BME280;41125;48.752;9.168;2024-03-22T02:28:53;97403.66;;;8.06;90.90
55263;BME280;41125;48.752;9.168;2024-03-22T02:29:24;97397.72;;;8.04;91.47
55263;BME280;41125;48.752;9.168;2024-03-22T02:29:55;97394.44;;;8.02;91.58
55263;BME280;41125;48.752;9.168;2024-03-22T02:30:27;97392.00;;;8.00;91.57
55263;BME280;41125;48.752;9.168;2024-03-22T02:30:59;97395.25;;;8.02;91.14
55263;BME280;41125;48.752;9.168;2024-03-22T02:31:32;97392.56;;;8.02;91.45
55263;BME280;41125;48.752;9.168;2024-03-22T02:32:05;97391.47;;;8.03;91.38
55263;BME280;41125;48.752;9.168;2024-03-22T02:32:37;97398.53;;;8.04;91.81
55263;BME280;41125;48.752;9.168;2024-03-22T02:33:10;97386.91;;;8.04;90.96
55263;BME280;41125;48.752;9.168;2024-03-22T02:33:41;97390.97;;;8.06;91.30
55263;BME280;41125;48.752;9.168;2024-03-22T02:34:16;97390.97;;;8.06;91.33
55263;BME280;41125;48.752;9.168;2024-03-22T02:34:48;97390.97;;;8.06;91.67
55263;BME280;41125;48.752;9.168;2024-03-22T02:35:20;97393.66;;;8.06;91.40
55263;BME280;41125;48.752;9.168;2024-03-22T02:35:53;97392.31;;;8.04;91.54
55263;BME280;41125;48.752;9.168;2024-03-22T02:36:26;97392.31;;;8.04;91.37
55263;BME280;41125;48.752;9.168;2024-03-22T02:36:58;97386.09;;;8.03;91.27
55263;BME280;41125;48.752;9.168;2024-03-22T02:37:29;97387.97;;;8.03;91.57
55263;BME280;41125;48.752;9.168;2024-03-22T02:38:04;97387.16;;;8.02;91.53
55263;BME280;41125;48.752;9.168;2024-03-22T02:38:35;97389.84;;;8.02;91.36
55263;BME280;41125;48.752;9.168;2024-03-22T02:39:09;97398.22;;;8.01;91.32
55263;BME280;41125;48.752;9.168;2024-03-22T02:39:42;97384.97;;;7.99;91.31
55263;BME280;41125;48.752;9.168;2024-03-22T02:40:14;97389.56;;;7.99;91.39
55263;BME280;41125;48.752;9.168;2024-03-22T02:40:47;97389.31;;;7.95;91.65
55263;BME280;41125;48.752;9.168;2024-03-22T02:41:19;97393.09;;;7.94;91.72
55263;BME280;41125;48.752;9.168;2024-03-22T02:41:51;97389.84;;;7.92;91.71
55263;BME280;41125;48.752;9.168;2024-03-22T02:42:22;97389.84;;;7.92;91.89
55263;BME280;41125;48.752;9.168;2024-03-22T02:42:54;97393.63;;;7.91;92.02
55263;BME280;41125;48.752;9.168;2024-03-22T02:43:25;97388.22;;;7.91;91.60
55263;BME280;41125;48.752;9.168;2024-03-22T02:43:56;97389.84;;;7.92;91.55
55263;BME280;41125;48.752;9.168;2024-03-22T02:44:27;97384.44;;;7.92;91.94
55263;BME280;41125;48.752;9.168;2024-03-22T02:44:59;97387.13;;;7.92;91.73
55263;BME280;41125;48.752;9.168;2024-03-22T02:45:31;97388.22;;;7.91;92.50
55263;BME280;41125;48.752;9.168;2024-03-22T02:46:03;97380.38;;;7.90;92.22
55263;BME280;41125;48.752;9.168;2024-03-22T02:46:34;97383.06;;;7.90;92.63
55263;BME280;41125;48.752;9.168;2024-03-22T02:47:05;97381.72;;;7.87;92.98
55263;BME280;41125;48.752;9.168;2024-03-22T02:47:36;97380.06;;;7.86;93.32
55263;BME280;41125;48.752;9.168;2024-03-22T02:48:08;97384.13;;;7.84;93.16
55263;BME280;41125;48.752;9.168;2024-03-22T02:48:39;97378.44;;;7.85;93.28
55263;BME280;41125;48.752;9.168;2024-03-22T02:49:11;97383.84;;;7.85;92.85
55263;BME280;41125;48.752;9.168;2024-03-22T02:49:46;97383.84;;;7.85;93.22
55263;BME280;41125;48.752;9.168;2024-03-22T02:50:17;97377.63;;;7.85;92.71
55263;BME280;41125;48.752;9.168;2024-03-22T02:50:48;97378.44;;;7.85;92.91
55263;BME280;41125;48.752;9.168;2024-03-22T02:51:23;97377.63;;;7.85;92.75